Time;durP1;ratioP1;P1;durP2;ratioP2;P2;SDS_P1;SDS_P2;PMS_P1;PMS_P2;Temp;Humidity;BMP_temperature;BMP_pressure;BME280_temperature;BME280_humidity;BME280_pressure;Samples;Min_cycle;Max_cycle;Signal;HPM_P1;HPM_P2
2023/05/31 00:01:37;;;;;;;4.20;2.80;;;;;;;10.30;53.32;100917.39;131066;1256;107681;-79
2023/05/31 00:04:42;;;;;;;5.90;3.70;;;;;;;10.24;53.18;100918.77;131049;1257;106341;-78
2023/05/31 00:07:48;;;;;;;6.50;4.20;;;;;;;10.21;53.24;100922.27;131174;1264;107616;-78
2023/05/31 00:10:53;;;;;;;9.70;5.90;;;;;;;10.17;53.44;100918.01;131053;1257;107524;-78
2023/05/31 00:13:59;;;;;;;8.70;4.80;;;;;;;10.12;53.60;100918.46;131105;1256;107472;-78
2023/05/31 00:17:05;;;;;;;8.60;5.10;;;;;;;10.07;53.65;100920.45;130992;1256;107349;-78
2023/05/31 00:20:11;;;;;;;8.20;4.70;;;;;;;10.03;53.82;100915.24;131019;1257;107536;-78
2023/05/31 00:23:16;;;;;;;5.80;4.10;;;;;;;9.99;53.91;100920.63;131108;1264;107366;-78
2023/05/31 00:26:22;;;;;;;9.00;5.50;;;;;;;9.94;53.78;100924.27;131094;1263;107503;-80
2023/05/31 00:29:28;;;;;;;7.00;3.70;;;;;;;9.89;53.90;100933.02;130944;1257;107898;-78
2023/05/31 00:32:34;;;;;;;5.10;3.70;;;;;;;9.81;53.84;100936.21;131076;1264;107382;-79
2023/05/31 00:35:40;;;;;;;4.40;3.00;;;;;;;9.75;54.07;100934.21;130887;1259;107369;-81
2023/05/31 00:38:47;;;;;;;4.40;2.70;;;;;;;9.72;54.18;100938.59;131073;1257;107382;-78
2023/05/31 00:41:52;;;;;;;4.30;2.90;;;;;;;9.65;54.14;100936.50;131027;1255;107574;-79
2023/05/31 00:44:58;;;;;;;5.70;2.60;;;;;;;9.63;54.23;100940.20;130860;1258;108416;-80
2023/05/31 00:48:04;;;;;;;4.00;2.60;;;;;;;9.59;54.40;100935.91;130964;1257;107536;-79
2023/05/31 00:51:09;;;;;;;3.60;2.50;;;;;;;9.56;54.50;100938.35;131065;1257;107611;-79
2023/05/31 00:54:15;;;;;;;3.80;2.90;;;;;;;9.53;54.66;100939.29;130995;1257;107368;-78
2023/05/31 00:57:21;;;;;;;9.90;5.80;;;;;;;9.49;54.80;100938.75;131097;1264;107335;-79
2023/05/31 01:00:28;;;;;;;7.10;4.80;;;;;;;9.43;54.82;100940.44;131222;1257;107374;-79
2023/05/31 01:03:34;;;;;;;6.50;4.20;;;;;;;9.40;54.82;100943.69;131149;1257;107533;-79
2023/05/31 01:06:39;;;;;;;5.70;3.70;;;;;;;9.37;54.99;100946.68;130991;1264;105554;-82
2023/05/31 01:09:45;;;;;;;6.40;3.20;;;;;;;9.32;54.94;100946.55;131034;1264;107548;-81
2023/05/31 01:13:02;;;;;;;4.50;3.00;;;;;;;9.29;55.01;100945.21;131095;1255;107357;-79
2023/05/31 01:16:16;;;;;;;4.00;2.70;;;;;;;9.25;55.15;100946.08;131245;1255;107398;-79
2023/05/31 01:19:33;;;;;;;5.20;2.90;;;;;;;9.23;55.19;100944.13;130965;1251;107497;-79
2023/05/31 01:22:57;;;;;;;6.50;2.50;;;;;;;9.19;55.18;100949.03;131023;1257;107444;-81
2023/05/31 01:26:31;;;;;;;4.60;3.20;;;;;;;9.15;55.27;100951.90;130875;1264;107392;-80
2023/05/31 01:29:38;;;;;;;6.00;3.00;;;;;;;9.10;55.32;100953.02;131174;1255;107550;-79
2023/05/31 01:32:45;;;;;;;4.80;2.90;;;;;;;9.04;55.55;100958.79;131119;1255;106728;-79
2023/05/31 01:35:51;;;;;;;4.00;2.90;;;;;;;9.01;55.77;100957.25;131130;1264;107338;-79
2023/05/31 01:38:56;;;;;;;5.70;2.80;;;;;;;9.01;55.78;100962.23;131020;1251;107140;-80
2023/05/31 01:42:03;;;;;;;4.00;3.20;;;;;;;8.99;55.89;100968.76;130973;1256;107623;-78
2023/05/31 01:45:13;;;;;;;6.30;4.00;;;;;;;8.98;55.99;100969.77;131061;1254;107473;-78
2023/05/31 01:48:19;;;;;;;6.40;3.80;;;;;;;8.97;56.09;100969.13;130929;1254;107408;-79
2023/05/31 01:51:26;;;;;;;6.40;3.20;;;;;;;8.96;56.11;100973.67;130950;1252;107500;-79
2023/05/31 01:54:31;;;;;;;5.50;2.90;;;;;;;8.91;56.02;100973.38;131206;1256;105689;-79
2023/05/31 01:57:43;;;;;;;5.70;3.60;;;;;;;8.86;56.21;100974.61;131094;1255;107415;-78
2023/05/31 02:00:50;;;;;;;4.50;3.00;;;;;;;8.84;56.26;100971.39;131185;1264;106484;-79
2023/05/31 02:03:55;;;;;;;3.80;2.60;;;;;;;8.80;56.40;100972.06;130883;1254;108096;-79
2023/05/31 02:07:04;;;;;;;4.60;3.10;;;;;;;8.77;56.45;100977.88;131038;1251;107429;-80
2023/05/31 02:10:11;;;;;;;4.80;3.10;;;;;;;8.71;56.33;100979.36;130927;1266;107526;-80
2023/05/31 02:13:19;;;;;;;4.50;2.80;;;;;;;8.67;56.61;100976.01;130985;1264;107454;-81
2023/05/31 02:16:25;;;;;;;6.20;2.90;;;;;;;8.64;56.64;100981.45;131154;1255;107645;-80
2023/05/31 02:19:31;;;;;;;7.00;3.50;;;;;;;8.64;56.80;100982.75;130863;1256;107445;-81
2023/05/31 02:22:36;;;;;;;5.00;3.20;;;;;;;8.63;56.81;100980.50;131128;1257;107060;-80
2023/05/31 02:25:45;;;;;;;4.60;3.20;;;;;;;8.60;56.72;100981.61;131015;1255;107523;-78
2023/05/31 02:28:50;;;;;;;4.30;3.00;;;;;;;8.60;56.95;100982.56;130864;1257;107601;-78
2023/05/31 02:31:56;;;;;;;4.60;3.00;;;;;;;8.61;56.97;100984.79;131038;1251;105777;-78
2023/05/31 02:35:02;;;;;;;5.00;2.80;;;;;;;8.62;56.99;100985.23;130935;1254;107576;-76
2023/05/31 02:38:07;;;;;;;4.80;3.00;;;;;;;8.60;57.20;100989.26;131010;1255;107361;-77
2023/05/31 02:41:14;;;;;;;5.60;4.80;;;;;;;8.61;57.16;100990.25;130855;1257;107529;-76
2023/05/31 02:44:20;;;;;;;7.40;4.60;;;;;;;8.60;57.17;100987.16;130915;1260;107459;-77
2023/05/31 02:47:27;;;;;;;5.80;4.10;;;;;;;8.59;57.11;100988.66;130917;1260;107420;-78
2023/05/31 02:50:33;;;;;;;9.30;5.10;;;;;;;8.53;57.12;100986.83;130986;1266;106408;-77
2023/05/31 02:53:39;;;;;;;9.10;5.90;;;;;;;8.54;57.34;100995.61;130924;1266;106537;-77
2023/05/31 02:56:49;;;;;;;7.60;4.80;;;;;;;8.57;57.50;100996.98;130986;1264;107359;-79
2023/05/31 03:00:08;;;;;;;8.90;5.00;;;;;;;8.61;57.68;100993.64;130936;1254;107395;-78
2023/05/31 03:03:15;;;;;;;6.90;4.40;;;;;;;8.65;57.64;100993.86;132629;1257;107558;-78
2023/05/31 03:06:42;;;;;;;5.20;3.50;;;;;;;8.68;57.77;100994.41;130919;1265;107495;-78
2023/05/31 03:09:48;;;;;;;4.30;3.20;;;;;;;8.72;57.83;100992.83;130895;1255;107443;-79
2023/05/31 03:12:53;;;;;;;5.10;3.30;;;;;;;8.76;57.93;100996.54;130741;1257;107512;-79
2023/05/31 03:15:59;;;;;;;6.10;3.30;;;;;;;8.84;57.90;101000.65;130832;1254;108042;-79
2023/05/31 03:19:06;;;;;;;4.30;3.30;;;;;;;9.00;57.98;100994.27;130812;1254;106564;-79
2023/05/31 03:22:12;;;;;;;4.30;3.00;;;;;;;9.16;57.97;100995.61;131033;1254;105609;-78
2023/05/31 03:25:17;;;;;;;4.20;2.80;;;;;;;9.29;58.04;100995.04;130808;1257;107898;-78
2023/05/31 03:28:23;;;;;;;4.50;2.40;;;;;;;9.45;58.04;100996.73;130990;1256;107456;-77
2023/05/31 03:31:30;;;;;;;4.10;2.50;;;;;;;9.71;58.23;100995.86;131025;1257;107407;-79
2023/05/31 03:34:38;;;;;;;4.00;2.60;;;;;;;10.01;58.17;100994.89;130894;1257;107794;-78
2023/05/31 03:37:43;;;;;;;4.60;3.30;;;;;;;10.34;57.90;100988.17;130960;1263;107582;-77
2023/05/31 03:40:51;;;;;;;3.40;2.50;;;;;;;10.65;57.81;100988.53;130857;1266;107398;-78
2023/05/31 03:43:57;;;;;;;4.70;2.30;;;;;;;10.96;57.88;100990.08;130963;1257;107526;-77
2023/05/31 03:47:04;;;;;;;3.60;2.30;;;;;;;11.27;57.39;100990.66;130792;1257;107466;-77
2023/05/31 03:50:11;;;;;;;3.70;2.30;;;;;;;11.50;57.67;100990.14;130960;1257;107550;-77
2023/05/31 03:53:17;;;;;;;4.80;2.80;;;;;;;11.69;57.53;100985.30;130821;1258;107957;-78
2023/05/31 03:56:22;;;;;;;4.70;2.80;;;;;;;12.00;57.74;100989.66;130900;1266;107518;-78
2023/05/31 03:59:28;;;;;;;4.10;2.30;;;;;;;12.29;57.52;100993.13;130944;1254;108126;-77
2023/05/31 04:02:36;;;;;;;4.80;2.40;;;;;;;12.55;57.47;100989.42;130948;1257;107454;-78
2023/05/31 04:05:42;;;;;;;3.70;2.30;;;;;;;12.82;57.47;100990.51;130756;1257;108706;-77
2023/05/31 04:08:47;;;;;;;3.40;2.30;;;;;;;13.09;57.56;100986.34;130962;1257;107631;-81
2023/05/31 04:11:53;;;;;;;5.20;2.40;;;;;;;13.34;57.53;100989.05;131100;1258;107568;-83
2023/05/31 04:14:59;;;;;;;3.50;2.30;;;;;;;13.59;57.57;100984.91;131007;1257;107525;-81
2023/05/31 04:18:05;;;;;;;5.20;2.50;;;;;;;13.81;57.33;100983.96;131038;1255;107359;-80
2023/05/31 04:21:11;;;;;;;4.00;2.70;;;;;;;14.02;57.33;100981.77;131010;1255;107540;-81
2023/05/31 04:24:16;;;;;;;4.90;2.60;;;;;;;14.16;56.91;100983.80;130992;1257;107365;-81
2023/05/31 04:27:25;;;;;;;4.90;2.90;;;;;;;14.17;56.89;100980.80;130870;1257;106523;-80
2023/05/31 04:30:31;;;;;;;5.10;2.80;;;;;;;14.18;56.75;100983.40;131046;1254;107429;-81
2023/05/31 04:33:37;;;;;;;5.50;2.90;;;;;;;14.22;56.97;100989.10;130908;1257;107449;-81
2023/05/31 04:36:44;;;;;;;9.40;2.80;;;;;;;14.25;56.72;100992.50;130994;1251;107533;-81
2023/05/31 04:39:50;;;;;;;5.50;3.10;;;;;;;14.32;56.69;100993.45;130965;1254;107248;-81
2023/05/31 04:42:56;;;;;;;4.50;2.60;;;;;;;14.42;56.57;100988.96;131037;1254;107416;-81
2023/05/31 04:46:09;;;;;;;5.70;2.90;;;;;;;14.55;56.67;100987.06;130961;1254;107633;-81
2023/05/31 04:49:14;;;;;;;6.90;2.90;;;;;;;14.54;56.29;100985.94;130927;1257;107208;-81
2023/05/31 04:52:21;;;;;;;6.30;2.90;;;;;;;14.56;56.21;100988.27;131180;1251;106851;-81
2023/05/31 04:55:27;;;;;;;5.30;2.80;;;;;;;14.54;56.19;100993.77;130861;1253;106784;-81
2023/05/31 04:58:33;;;;;;;4.40;2.20;;;;;;;14.68;55.95;100992.20;131054;1254;107448;-81
2023/05/31 05:01:40;;;;;;;3.30;2.30;;;;;;;14.87;55.66;100989.45;131037;1254;107516;-81
2023/05/31 05:04:51;;;;;;;5.30;2.70;;;;;;;14.85;54.72;100989.71;131036;1251;164114;-81
2023/05/31 05:07:57;;;;;;;3.00;1.80;;;;;;;14.81;54.86;100989.73;130990;1255;107522;-81
2023/05/31 05:11:03;;;;;;;2.90;1.90;;;;;;;14.93;54.62;100988.42;130990;1254;107515;-81
2023/05/31 05:14:09;;;;;;;4.70;2.30;;;;;;;15.04;53.69;100985.33;131049;1256;107542;-81
2023/05/31 05:17:15;;;;;;;4.00;1.90;;;;;;;15.03;54.01;100984.39;131122;1257;107613;-81
2023/05/31 05:20:21;;;;;;;3.90;2.10;;;;;;;15.09;53.39;100985.52;131015;1256;107210;-81
2023/05/31 05:23:28;;;;;;;3.50;1.90;;;;;;;15.17;53.96;100987.38;131305;1251;107645;-81
2023/05/31 05:26:36;;;;;;;3.90;2.00;;;;;;;15.30;53.53;100988.98;131059;1255;108600;-82
2023/05/31 05:29:42;;;;;;;7.70;1.90;;;;;;;15.36;53.79;100984.71;130891;1256;105647;-83
2023/05/31 05:32:47;;;;;;;3.60;1.90;;;;;;;15.54;54.09;100981.52;131021;1252;107618;-83
2023/05/31 05:35:53;;;;;;;3.30;1.70;;;;;;;15.75;53.81;100987.86;130844;1257;106068;-82
2023/05/31 05:39:03;;;;;;;4.40;2.40;;;;;;;15.95;53.15;100988.53;131171;1257;107538;-82
2023/05/31 05:42:11;;;;;;;4.10;1.80;;;;;;;15.91;51.61;100993.31;131034;1254;107539;-83
2023/05/31 05:45:17;;;;;;;3.80;1.60;;;;;;;15.73;51.92;100993.80;131087;1256;107360;-81
2023/05/31 05:48:24;;;;;;;3.10;1.70;;;;;;;15.72;52.40;100989.78;131092;1254;106478;-81
2023/05/31 05:51:31;;;;;;;4.60;1.80;;;;;;;15.86;52.27;100994.06;130928;1258;107418;-81
2023/05/31 05:54:38;;;;;;;2.70;1.80;;;;;;;15.88;50.84;100995.94;131101;1255;107371;-81
2023/05/31 05:57:44;;;;;;;3.10;1.60;;;;;;;15.81;51.49;100994.23;130935;1254;107259;-81
2023/05/31 06:01:04;;;;;;;4.20;1.60;;;;;;;15.88;51.90;100994.87;130921;1250;107536;-81
2023/05/31 06:04:11;;;;;;;4.20;1.60;;;;;;;15.87;51.54;100996.61;131098;1255;107939;-81
2023/05/31 06:07:17;;;;;;;4.00;2.40;;;;;;;15.90;52.00;100998.14;130954;1253;107502;-81
2023/05/31 06:10:23;;;;;;;2.50;1.60;;;;;;;15.92;51.25;100997.15;131110;1254;107387;-81
2023/05/31 06:13:30;;;;;;;4.20;1.50;;;;;;;15.83;50.31;100993.15;130953;1254;107371;-82
2023/05/31 06:16:39;;;;;;;2.70;1.60;;;;;;;15.76;50.57;100991.59;131008;1254;107529;-81
2023/05/31 06:19:47;;;;;;;2.20;1.30;;;;;;;15.77;51.02;100990.78;131018;1254;107547;-81
2023/05/31 06:22:53;;;;;;;2.10;1.40;;;;;;;15.81;49.69;100988.66;131158;1257;107663;-81
2023/05/31 06:26:00;;;;;;;2.90;1.20;;;;;;;15.75;50.10;100982.50;130952;1255;107513;-81
2023/05/31 06:29:07;;;;;;;3.30;1.40;;;;;;;15.83;50.50;100982.48;131026;1256;107510;-81
2023/05/31 06:32:39;;;;;;;3.30;1.30;;;;;;;15.95;50.55;100974.60;131187;1258;107621;-80
2023/05/31 06:35:46;;;;;;;3.00;1.30;;;;;;;15.95;49.98;100970.61;131236;1251;107529;-80
2023/05/31 06:38:51;;;;;;;3.80;1.40;;;;;;;15.84;49.27;100968.26;131037;1253;108731;-80
2023/05/31 06:41:59;;;;;;;1.90;1.30;;;;;;;15.77;49.95;100972.27;130926;1257;107524;-83
2023/05/31 06:45:43;;;;;;;4.70;1.30;;;;;;;15.79;49.83;100972.04;131153;1251;107315;-81
2023/05/31 06:49:11;;;;;;;3.50;1.10;;;;;;;15.89;49.88;100968.02;131126;1261;105798;-81
2023/05/31 06:52:52;;;;;;;65.20;6.30;;;;;;;15.95;48.11;100964.05;130499;1262;107357;-81
2023/05/31 06:56:10;;;;;;;3.90;1.70;;;;;;;15.97;49.02;100958.05;131017;1253;107511;-81
2023/05/31 06:59:16;;;;;;;3.00;1.40;;;;;;;16.02;49.45;100956.69;131005;1257;107529;-81
2023/05/31 07:02:21;;;;;;;2.20;1.20;;;;;;;16.11;48.43;100960.05;130938;1265;107552;-80
2023/05/31 07:05:27;;;;;;;2.40;0.90;;;;;;;16.10;48.01;100957.91;130953;1252;106436;-81
2023/05/31 07:08:33;;;;;;;2.80;1.50;;;;;;;16.15;47.38;100959.39;131146;1256;107515;-80
2023/05/31 07:11:57;;;;;;;1.70;1.10;;;;;;;16.23;47.57;100958.94;131279;1251;107508;-81
2023/05/31 07:15:04;;;;;;;3.60;1.20;;;;;;;16.33;47.85;100952.52;131120;1257;108029;-80
2023/05/31 07:18:10;;;;;;;4.20;2.20;;;;;;;16.45;47.97;100952.28;131181;1254;107458;-81
2023/05/31 07:21:16;;;;;;;8.80;3.80;;;;;;;16.55;47.94;100946.96;130990;1257;106413;-81
2023/05/31 07:24:21;;;;;;;3.90;1.50;;;;;;;16.68;47.24;100942.11;131023;1255;107739;-80
2023/05/31 07:27:27;;;;;;;5.90;2.60;;;;;;;16.69;45.65;100946.54;131020;1253;107525;-80
2023/05/31 07:30:32;;;;;;;14.90;10.10;;;;;;;16.68;46.14;100947.98;131215;1254;107492;-81
2023/05/31 07:33:38;;;;;;;11.10;5.60;;;;;;;16.67;46.26;100945.63;131140;1252;107249;-81
2023/05/31 07:36:44;;;;;;;9.10;5.10;;;;;;;16.71;45.84;100938.85;131149;1254;107369;-81
2023/05/31 07:39:49;;;;;;;8.90;5.90;;;;;;;16.71;44.12;100938.32;131242;1254;107618;-81
2023/05/31 07:42:55;;;;;;;4.30;3.00;;;;;;;16.71;44.59;100933.68;131096;1256;107538;-81
2023/05/31 07:46:01;;;;;;;3.50;2.40;;;;;;;16.75;44.19;100933.23;131044;1255;107208;-81
2023/05/31 07:49:06;;;;;;;3.50;1.20;;;;;;;16.86;44.72;100929.84;131079;1257;107635;-81
2023/05/31 07:52:12;;;;;;;2.20;1.10;;;;;;;16.89;43.73;100929.09;131084;1251;107297;-82
2023/05/31 07:55:18;;;;;;;5.60;2.20;;;;;;;16.99;44.12;100928.91;131034;1250;107490;-81
2023/05/31 07:58:24;;;;;;;7.40;4.00;;;;;;;17.07;43.21;100930.76;131080;1254;107468;-81
2023/05/31 08:01:29;;;;;;;2.30;1.80;;;;;;;17.09;42.32;100927.34;131077;1250;108233;-81
2023/05/31 08:04:34;;;;;;;3.70;1.30;;;;;;;17.19;44.58;100923.43;131020;1251;107551;-81
2023/05/31 08:07:40;;;;;;;3.40;2.10;;;;;;;17.36;42.87;100918.10;131280;1251;107555;-81
2023/05/31 08:10:46;;;;;;;1.80;1.10;;;;;;;17.40;42.00;100919.25;131144;1256;107527;-80
2023/05/31 08:13:51;;;;;;;4.20;1.70;;;;;;;17.37;42.97;100916.88;130880;1253;107647;-81
2023/05/31 08:16:57;;;;;;;2.80;1.40;;;;;;;17.42;42.58;100914.61;131067;1255;107532;-81
2023/05/31 08:20:06;;;;;;;2.30;1.10;;;;;;;17.50;41.94;100914.30;130999;1253;107953;-81
2023/05/31 08:23:19;;;;;;;2.50;1.90;;;;;;;17.53;42.00;100913.70;131148;1251;107603;-81
2023/05/31 08:26:25;;;;;;;2.10;1.30;;;;;;;17.59;42.11;100912.77;131080;1254;106089;-80
2023/05/31 08:29:31;;;;;;;3.70;1.80;;;;;;;17.66;42.49;100909.60;131096;1257;107189;-81
2023/05/31 08:32:37;;;;;;;2.20;1.20;;;;;;;17.78;42.93;100907.66;131152;1253;107407;-81
2023/05/31 08:35:42;;;;;;;3.00;1.70;;;;;;;17.89;42.27;100904.58;131197;1254;106676;-81
2023/05/31 08:38:48;;;;;;;2.60;1.20;;;;;;;17.97;43.01;100905.58;131233;1256;107247;-81
2023/05/31 08:42:00;;;;;;;10.80;2.10;;;;;;;18.10;42.08;100901.05;131118;1254;106514;-81
2023/05/31 08:45:04;;;;;;;;;;;;;;;18.19;42.85;100888.75;131043;1257;107608;-82
2023/05/31 08:48:18;;;;;;;2.30;1.30;;;;;;;18.30;42.13;100892.46;131218;1256;106504;-81
2023/05/31 08:51:25;;;;;;;1.70;1.10;;;;;;;18.38;41.89;100892.77;131231;1254;107594;-81
2023/05/31 08:54:31;;;;;;;3.10;1.20;;;;;;;18.43;41.29;100892.71;131093;1256;107249;-81
2023/05/31 08:57:38;;;;;;;1.40;1.00;;;;;;;18.53;42.68;100895.40;131214;1254;107532;-81
2023/05/31 09:00:44;;;;;;;3.60;1.60;;;;;;;18.64;41.07;100888.95;131268;1251;108618;-82
2023/05/31 09:03:50;;;;;;;3.50;1.50;;;;;;;18.57;39.96;100885.27;131024;1257;107900;-81
2023/05/31 09:06:56;;;;;;;3.00;1.20;;;;;;;18.52;39.87;100885.83;131138;1254;107410;-81
2023/05/31 09:10:03;;;;;;;13.30;4.40;;;;;;;18.50;37.94;100885.72;131136;1255;106121;-82
2023/05/31 09:13:09;;;;;;;5.60;2.00;;;;;;;18.50;38.96;100889.63;130958;1254;107396;-82
2023/05/31 09:16:15;;;;;;;4.70;1.60;;;;;;;18.57;37.67;100888.55;131039;1254;107572;-81
2023/05/31 09:19:20;;;;;;;2.60;1.50;;;;;;;18.50;37.53;100890.50;131212;1250;107528;-81
2023/05/31 09:22:26;;;;;;;2.50;1.20;;;;;;;18.50;38.02;100888.77;131085;1250;107474;-81
2023/05/31 09:25:44;;;;;;;2.40;1.00;;;;;;;18.53;36.88;100886.71;131074;1254;107153;-81
2023/05/31 09:28:52;;;;;;;1.70;1.30;;;;;;;18.56;38.51;100884.35;131150;1257;107336;-83
2023/05/31 09:32:11;;;;;;;1.40;1.10;;;;;;;18.73;39.35;100882.80;131183;1251;107271;-81
2023/05/31 09:35:17;;;;;;;5.20;1.40;;;;;;;18.91;37.77;100887.15;131135;1256;108138;-81
2023/05/31 09:38:31;;;;;;;1.90;0.90;;;;;;;18.91;37.82;100885.41;131044;1255;107441;-82
2023/05/31 09:41:37;;;;;;;3.30;1.80;;;;;;;18.98;37.44;100884.53;131137;1255;107546;-81
2023/05/31 09:44:49;;;;;;;2.60;1.20;;;;;;;18.97;36.12;100886.51;131138;1256;107555;-81
2023/05/31 09:47:55;;;;;;;1.80;1.20;;;;;;;18.93;36.06;100882.98;131175;1256;107387;-81
2023/05/31 09:51:01;;;;;;;3.00;1.70;;;;;;;18.95;35.38;100880.63;131032;1256;107551;-81
2023/05/31 09:54:14;;;;;;;2.30;1.20;;;;;;;18.95;35.81;100874.10;131106;1256;106836;-82
2023/05/31 09:57:40;;;;;;;2.00;1.20;;;;;;;19.00;35.74;100876.31;131024;1256;106427;-81
2023/05/31 10:00:48;;;;;;;2.90;1.40;;;;;;;19.09;34.43;100876.36;131075;1254;107410;-81
2023/05/31 10:03:54;;;;;;;2.10;1.40;;;;;;;19.13;35.90;100873.64;131264;1254;107398;-81
2023/05/31 10:07:00;;;;;;;5.70;2.50;;;;;;;19.16;34.75;100873.80;131048;1253;107525;-82
2023/05/31 10:10:07;;;;;;;3.90;2.40;;;;;;;19.14;33.27;100873.15;131211;1255;107573;-82
2023/05/31 10:13:14;;;;;;;1.40;1.10;;;;;;;19.17;34.79;100870.02;131136;1264;107649;-81
2023/05/31 10:16:22;;;;;;;1.90;1.20;;;;;;;19.30;34.30;100868.20;131093;1254;107259;-81
2023/05/31 10:19:35;;;;;;;2.00;1.20;;;;;;;19.36;33.83;100864.42;131124;1251;107297;-81
2023/05/31 10:22:44;;;;;;;1.70;0.90;;;;;;;19.40;34.33;100856.89;131152;1256;107367;-81
2023/05/31 10:25:57;;;;;;;1.90;1.10;;;;;;;19.49;33.45;100855.23;131197;1252;107585;-81
2023/05/31 10:29:11;;;;;;;1.50;0.90;;;;;;;19.55;32.77;100854.38;131152;1252;107292;-82
2023/05/31 10:32:24;;;;;;;1.90;1.10;;;;;;;19.61;31.80;100851.24;131066;1254;107432;-81
2023/05/31 10:35:30;;;;;;;1.40;1.10;;;;;;;19.59;32.01;100848.73;131181;1256;107517;-81
2023/05/31 10:38:41;;;;;;;1.30;1.20;;;;;;;19.68;32.71;100848.63;131146;1254;107549;-81
2023/05/31 10:41:51;;;;;;;2.60;1.20;;;;;;;19.82;31.48;100851.90;131153;1254;106687;-81
2023/05/31 10:45:06;;;;;;;1.80;1.10;;;;;;;19.82;31.47;100848.66;131231;1253;107274;-81
2023/05/31 10:48:21;;;;;;;1.90;1.00;;;;;;;19.85;31.59;100845.95;131252;1255;107734;-82
2023/05/31 10:51:41;;;;;;;2.90;0.90;;;;;;;19.89;29.37;100843.87;131040;1251;107181;-81
2023/05/31 10:54:47;;;;;;;1.90;1.00;;;;;;;19.92;31.14;100843.51;131156;1255;106504;-81
2023/05/31 10:57:55;;;;;;;2.40;2.10;;;;;;;20.02;29.92;100839.14;131113;1255;107014;-81
2023/05/31 11:01:06;;;;;;;6.70;3.90;;;;;;;20.11;31.15;100834.09;131111;1251;107656;-82
2023/05/31 11:04:24;;;;;;;4.60;2.60;;;;;;;20.25;31.05;100826.19;131197;1251;107343;-82
2023/05/31 11:07:34;;;;;;;3.20;1.70;;;;;;;20.35;29.86;100829.02;131258;1254;107535;-82
2023/05/31 11:10:39;;;;;;;2.60;1.40;;;;;;;20.43;31.44;100822.33;131102;1252;107611;-83
2023/05/31 11:14:03;;;;;;;2.80;1.80;;;;;;;20.49;29.22;100824.02;131139;1254;107509;-81
2023/05/31 11:17:18;;;;;;;3.60;2.10;;;;;;;20.49;28.84;100821.94;131133;1253;106575;-82
2023/05/31 11:20:26;;;;;;;1.90;1.20;;;;;;;20.49;29.57;100813.30;131959;1250;105757;-81
2023/05/31 11:23:35;;;;;;;2.00;1.30;;;;;;;20.46;28.94;100815.71;133563;1251;107503;-82
2023/05/31 11:26:54;;;;;;;3.60;1.60;;;;;;;20.45;29.12;100811.48;131239;1255;107449;-82
2023/05/31 11:30:00;;;;;;;2.80;1.50;;;;;;;20.51;27.70;100812.48;131078;1253;108580;-81
2023/05/31 11:33:16;;;;;;;4.50;1.50;;;;;;;20.55;28.93;100804.30;131073;1251;107255;-81
2023/05/31 11:36:23;;;;;;;2.20;1.40;;;;;;;20.69;28.35;100806.32;131165;1251;106392;-81
2023/05/31 11:39:29;;;;;;;2.00;1.30;;;;;;;20.73;27.09;100800.19;131280;1256;107421;-81
2023/05/31 11:42:36;;;;;;;2.10;1.20;;;;;;;20.81;28.76;100796.03;131165;1254;108670;-81
2023/05/31 11:45:47;;;;;;;2.10;1.10;;;;;;;20.95;28.82;100799.50;131240;1255;107508;-81
2023/05/31 11:48:52;;;;;;;2.00;1.30;;;;;;;21.03;27.76;100804.00;131148;1253;107620;-82
2023/05/31 11:51:58;;;;;;;3.90;1.30;;;;;;;21.03;27.85;100802.84;131166;1254;109220;-83
2023/05/31 11:55:09;;;;;;;1.50;1.20;;;;;;;21.13;29.08;100794.20;131194;1256;107559;-82
2023/05/31 11:58:14;;;;;;;3.70;1.10;;;;;;;21.29;28.54;100791.85;130946;1251;107282;-82
2023/05/31 12:01:21;;;;;;;2.00;1.30;;;;;;;21.34;27.30;100795.55;131130;1255;107484;-82
2023/05/31 12:04:36;;;;;;;1.60;1.30;;;;;;;21.27;26.47;100790.26;131239;1251;107039;-82
2023/05/31 12:07:42;;;;;;;4.20;1.60;;;;;;;21.24;26.98;100783.80;131097;1256;107451;-82
2023/05/31 12:10:48;;;;;;;3.50;1.20;;;;;;;21.31;26.95;100779.60;131212;1254;107277;-81
2023/05/31 12:13:55;;;;;;;1.90;1.30;;;;;;;21.36;26.86;100773.88;131092;1254;106817;-82
2023/05/31 12:17:03;;;;;;;1.40;1.00;;;;;;;21.50;26.60;100775.04;131002;1251;107483;-82
2023/05/31 12:20:12;;;;;;;2.00;1.20;;;;;;;21.58;26.47;100769.56;131126;1256;108123;-82
2023/05/31 12:23:19;;;;;;;7.80;2.50;;;;;;;21.70;25.87;100757.85;131189;1250;107372;-82
2023/05/31 12:26:28;;;;;;;3.80;1.80;;;;;;;21.77;24.99;100757.38;131251;1254;107409;-84
2023/05/31 12:29:35;;;;;;;2.60;1.20;;;;;;;21.67;24.20;100755.36;131349;1255;107523;-83
2023/05/31 12:32:47;;;;;;;12.10;2.40;;;;;;;21.55;24.68;100750.59;131036;1256;108697;-82
2023/05/31 12:35:57;;;;;;;14.70;2.20;;;;;;;21.50;25.01;100747.10;131004;1253;107291;-83
2023/05/31 12:39:07;;;;;;;2.30;1.10;;;;;;;21.52;26.17;100739.98;131177;1256;107305;-80
2023/05/31 12:42:14;;;;;;;2.00;1.00;;;;;;;21.43;24.79;100738.54;131104;1256;108665;-82
2023/05/31 12:45:21;;;;;;;1.50;0.90;;;;;;;21.30;25.71;100738.48;131260;1255;107781;-83
2023/05/31 12:48:26;;;;;;;1.20;1.00;;;;;;;21.31;25.39;100734.09;131187;1255;107534;-81
2023/05/31 12:51:32;;;;;;;2.80;1.50;;;;;;;21.30;24.76;100736.93;131092;1256;107550;-81
2023/05/31 12:54:39;;;;;;;1.40;1.00;;;;;;;21.34;24.78;100729.98;131200;1250;107051;-82
2023/05/31 12:57:45;;;;;;;2.10;1.20;;;;;;;21.43;25.33;100717.58;131199;1254;108131;-81
2023/05/31 13:00:51;;;;;;;1.30;1.10;;;;;;;21.50;24.74;100715.65;131138;1255;107679;-82
2023/05/31 13:03:57;;;;;;;2.30;1.20;;;;;;;21.56;25.30;100711.03;131093;1256;107432;-81
2023/05/31 13:07:03;;;;;;;5.40;3.40;;;;;;;21.58;25.30;100703.89;131246;1252;107566;-82
2023/05/31 13:10:09;;;;;;;5.20;3.00;;;;;;;21.62;24.82;100698.60;131150;1254;108006;-81
2023/05/31 13:13:15;;;;;;;2.50;1.30;;;;;;;21.56;24.92;100697.66;131124;1256;107398;-81
2023/05/31 13:16:20;;;;;;;13.30;6.10;;;;;;;21.44;25.25;100694.06;131118;1251;108834;-81
2023/05/31 13:19:26;;;;;;;7.20;3.60;;;;;;;21.35;25.04;100689.48;131227;1254;107617;-81
2023/05/31 13:22:32;;;;;;;8.70;4.40;;;;;;;21.38;25.63;100684.25;131217;1254;107373;-82
2023/05/31 13:25:39;;;;;;;1.80;1.30;;;;;;;21.45;26.38;100681.02;131264;1265;107556;-81
2023/05/31 13:28:45;;;;;;;9.90;4.30;;;;;;;21.47;25.22;100676.06;131138;1254;107487;-82
2023/05/31 13:31:51;;;;;;;2.60;1.50;;;;;;;21.43;26.10;100678.39;131123;1254;108562;-82
2023/05/31 13:34:56;;;;;;;5.10;1.90;;;;;;;21.45;25.91;100673.05;131267;1254;108668;-82
2023/05/31 13:38:02;;;;;;;3.80;1.40;;;;;;;21.48;26.00;100664.70;130983;1253;107550;-82
2023/05/31 13:41:08;;;;;;;3.50;1.60;;;;;;;21.51;26.21;100662.13;131217;1254;107498;-82
2023/05/31 13:44:15;;;;;;;2.80;1.60;;;;;;;21.52;25.65;100656.62;131297;1250;107536;-81
2023/05/31 13:47:20;;;;;;;1.90;1.30;;;;;;;21.55;26.12;100650.55;131189;1256;106822;-81
2023/05/31 13:50:26;;;;;;;3.00;1.70;;;;;;;21.57;25.58;100649.58;131059;1254;107421;-81
2023/05/31 13:53:32;;;;;;;1.90;1.10;;;;;;;21.53;24.88;100644.13;131220;1256;108230;-81
2023/05/31 13:56:37;;;;;;;1.20;1.00;;;;;;;21.43;24.18;100638.22;131361;1255;105607;-81
2023/05/31 13:59:43;;;;;;;1.50;1.10;;;;;;;21.38;24.66;100635.63;131223;1261;107198;-81
2023/05/31 14:02:49;;;;;;;5.10;1.80;;;;;;;21.43;25.38;100629.88;131088;1250;107582;-81
2023/05/31 14:05:55;;;;;;;3.00;1.20;;;;;;;21.51;25.24;100624.70;131178;1256;106708;-81
2023/05/31 14:09:01;;;;;;;3.60;2.10;;;;;;;21.53;25.39;100620.77;131177;1256;107370;-81
2023/05/31 14:12:08;;;;;;;5.50;2.30;;;;;;;21.52;25.43;100618.73;131092;1255;107581;-81
2023/05/31 14:15:14;;;;;;;13.30;8.90;;;;;;;21.49;25.39;100610.64;131252;1256;107558;-81
2023/05/31 14:18:19;;;;;;;48.00;27.20;;;;;;;21.48;25.27;100611.23;131041;1256;107366;-81